Tiksy — UFVH — position and weather

sailwx.info

Track history (hours):
 
Tides and Currents Weather Stations Pressure Air Temp Water Temp Dewpoint Dewpoint Depression Visibility Wind Speed Wind Dir Waves Ship Positions

Tiksy

Last reported at 2017-Dec-14 03:38 UTC. Time now 2017-Dec-17 02:36 UTC.
Position N 35°57' W 005°35'.

Length 130 m; draft 5.3 m.

Type: Cargo ship. MMSI: 273396870.

Date/timePositionNaut miles runAvg speedWind from/ knotsBaromVisibWave heightAir tempDewpointWater temp
2017-Dec-14 03:38N 35°57' W 005°35'1 9.4
2017-Dec-14 03:30N 35°58' W 005°33'4 8.8
2017-Dec-14 03:00N 35°59' W 005°28'5 9.9
2017-Dec-14 02:30N 36°00' W 005°22'510.1
2017-Dec-14 02:00N 36°01' W 005°16'5 9.9
2017-Dec-14 01:30N 36°02' W 005°10'21011.4
2017-Dec-13 07:02N 37°13' W 001°04'112.5
2017-Dec-13 06:57N 37°14' W 001°03'512.4
2017-Dec-13 06:30N 37°18' W 000°58'612.4
2017-Dec-13 06:00N 37°22' W 000°52'612.4
2017-Dec-13 05:30N 37°26' W 000°46'612.1
2017-Dec-13 05:00N 37°30' W 000°40'612.0
2017-Dec-13 04:30N 37°33' W 000°34'612.1
2017-Dec-13 04:00N 37°39' W 000°30'612.0
2017-Dec-13 03:30N 37°44' W 000°26'711.9
2017-Dec-13 02:55N 37°49' W 000°21'511.6
2017-Dec-13 02:29N 37°54' W 000°17'611.4
2017-Dec-13 02:00N 37°58' W 000°14'  
Track history (hours):
 
Tides and Currents Weather Stations Pressure Air Temp Water Temp Dewpoint Dewpoint Depression Visibility Wind Speed Wind Dir Waves Ship Positions

Tiksy

Last reported at 2017-Dec-14 03:38 UTC. Time now 2017-Dec-17 02:36 UTC.
Position N 35°57' W 005°35'.

Length 130 m; draft 5.3 m.

Type: Cargo ship. MMSI: 273396870.

Date/timePositionNaut miles runAvg speedWind from/ knotsBaromVisibWave heightAir tempDewpointWater temp
2017-Dec-14 03:38N 35°57' W 005°35'1 9.4
2017-Dec-14 03:30N 35°58' W 005°33'4 8.8
2017-Dec-14 03:00N 35°59' W 005°28'5 9.9
2017-Dec-14 02:30N 36°00' W 005°22'510.1
2017-Dec-14 02:00N 36°01' W 005°16'5 9.9
2017-Dec-14 01:30N 36°02' W 005°10'21011.4
2017-Dec-13 07:02N 37°13' W 001°04'112.5
2017-Dec-13 06:57N 37°14' W 001°03'512.4
2017-Dec-13 06:30N 37°18' W 000°58'612.4
2017-Dec-13 06:00N 37°22' W 000°52'612.4
2017-Dec-13 05:30N 37°26' W 000°46'612.1
2017-Dec-13 05:00N 37°30' W 000°40'612.0
2017-Dec-13 04:30N 37°33' W 000°34'612.1
2017-Dec-13 04:00N 37°39' W 000°30'612.0
2017-Dec-13 03:30N 37°44' W 000°26'711.9
2017-Dec-13 02:55N 37°49' W 000°21'511.6
2017-Dec-13 02:29N 37°54' W 000°17'611.4
2017-Dec-13 02:00N 37°58' W 000°14'  

Dump ship's entire track history